Terminal Aerodrome Forecast
Issued by NWS

Current Version | Previous Version | Text Only | Print | Product List | Glossary On
Versions: 1 2 3 4 5 6 7 8 9 10 11 12 13 14
000
FTUS45 KREV 302320
TAFRNO
TAF
KRNO 302320Z 3100/3124 04008KT P6SM FEW080 SCT200
     FM310200 VRB03KT P6SM FEW200=

USA.gov is the U.S. government's official web portal to all federal, state and local government web resources and services.